createdAt,value
2017-04-26T00:00:08.190Z,61.02
2017-04-26T00:01:08.169Z,60.64
2017-04-26T00:02:07.851Z,60.64
2017-04-26T00:03:08.135Z,60.55
2017-04-26T00:04:08.121Z,60.74
2017-04-26T00:05:08.103Z,60.55
2017-04-26T00:06:07.783Z,60.55
2017-04-26T00:07:08.068Z,60.74
2017-04-26T00:08:08.049Z,60.64
2017-04-26T00:09:08.033Z,60.46
2017-04-26T00:10:08.016Z,60.36
2017-04-26T00:11:07.995Z,59.98
2017-04-26T00:12:07.678Z,60.36
2017-04-26T00:13:07.963Z,60.08
2017-04-26T00:14:07.946Z,60.36
2017-04-26T00:15:07.927Z,60.2
2017-04-26T00:16:07.908Z,60.39
2017-04-26T00:17:07.893Z,60.64
2017-04-26T00:18:07.876Z,60.55
2017-04-26T00:19:07.874Z,60.46
2017-04-26T00:20:07.839Z,60.55
2017-04-26T00:21:07.821Z,60.55
2017-04-26T00:22:07.805Z,60.55
2017-04-26T00:23:07.786Z,60.17
2017-04-26T00:24:07.773Z,60.17
2017-04-26T00:25:07.751Z,60.36
2017-04-26T00:26:07.733Z,60.46
2017-04-26T00:27:07.719Z,60.36
2017-04-26T00:28:07.398Z,60.27
2017-04-26T00:29:07.684Z,60.08
2017-04-26T00:30:07.663Z,60.36
2017-04-26T00:31:07.646Z,60.17
2017-04-26T00:32:07.635Z,60.17
2017-04-26T00:33:07.612Z,60.11
2017-04-26T00:34:07.593Z,60.11
2017-04-26T00:35:07.575Z,60.01
2017-04-26T00:36:07.559Z,60.49
2017-04-26T00:37:07.545Z,60.27
2017-04-26T00:38:07.521Z,60.17
2017-04-26T00:39:07.509Z,60.55
2017-04-26T00:40:07.487Z,60.55
2017-04-26T00:41:07.477Z,60.36
2017-04-26T00:42:07.460Z,60.36
2017-04-26T00:43:07.439Z,60.27
2017-04-26T00:44:07.421Z,59.98
2017-04-26T00:45:07.404Z,60.08
2017-04-26T00:46:07.388Z,60.08
2017-04-26T00:47:07.370Z,60.08
2017-04-26T00:48:07.048Z,60.17
2017-04-26T00:49:07.333Z,60.17
2017-04-26T00:50:07.310Z,60.08
2017-04-26T00:51:07.297Z,60.17
2017-04-26T00:52:07.279Z,60.08
2017-04-26T00:53:07.264Z,60.08
2017-04-26T00:54:07.247Z,60.08
2017-04-26T00:55:07.223Z,59.89
2017-04-26T00:56:06.905Z,59.79
2017-04-26T00:57:07.188Z,60.08
2017-04-26T00:58:07.173Z,59.7
2017-04-26T00:59:07.158Z,59.98
2017-04-26T01:00:07.138Z,59.7
2017-04-26T01:01:07.122Z,59.98
2017-04-26T01:02:07.101Z,60.08
2017-04-26T01:03:07.086Z,60.17
2017-04-26T01:04:07.068Z,59.98
2017-04-26T01:05:07.050Z,59.98
2017-04-26T01:06:07.038Z,60.17
2017-04-26T01:07:07.016Z,60.17
2017-04-26T01:08:06.996Z,59.79
2017-04-26T01:09:06.979Z,60.08
2017-04-26T01:10:06.966Z,59.79
2017-04-26T01:11:06.945Z,59.98
2017-04-26T01:12:06.927Z,59.98
2017-04-26T01:13:06.911Z,60.17
2017-04-26T01:14:06.889Z,60.08
2017-04-26T01:15:06.876Z,60.08
2017-04-26T01:16:06.855Z,60.17
2017-04-26T01:17:06.837Z,60.08
2017-04-26T01:18:06.821Z,59.98
2017-04-26T01:19:06.804Z,60.36
2017-04-26T01:20:06.787Z,60.08
2017-04-26T01:21:06.769Z,60.17
2017-04-26T01:22:06.754Z,59.98
2017-04-26T01:23:06.737Z,59.89
2017-04-26T01:24:06.718Z,59.98
2017-04-26T01:25:06.703Z,60.17
2017-04-26T01:26:06.682Z,59.98
2017-04-26T01:27:06.365Z,60.08
2017-04-26T01:28:06.344Z,60.36
2017-04-26T01:29:06.633Z,60.17
2017-04-26T01:30:06.612Z,60.08
2017-04-26T01:31:06.593Z,60.08
2017-04-26T01:32:06.575Z,60.08
2017-04-26T01:33:06.562Z,60.17
2017-04-26T01:34:06.540Z,60.17
2017-04-26T01:35:06.220Z,60.17
2017-04-26T01:36:06.512Z,60.08
2017-04-26T01:37:06.486Z,60.36
2017-04-26T01:38:06.472Z,60.08
2017-04-26T01:39:06.456Z,60.27
2017-04-26T01:40:06.441Z,60.17
2017-04-26T01:41:06.424Z,60.17
2017-04-26T01:42:06.398Z,60.17
2017-04-26T01:43:06.382Z,60.27
2017-04-26T01:44:06.367Z,60.08
2017-04-26T01:45:06.348Z,60.08
2017-04-26T01:46:06.329Z,60.36
2017-04-26T01:47:06.008Z,60.17
2017-04-26T01:48:06.294Z,60.08
2017-04-26T01:49:06.275Z,60.17
2017-04-26T01:50:06.254Z,60.08
2017-04-26T01:51:06.246Z,60.08
2017-04-26T01:52:06.224Z,60.08
2017-04-26T01:53:06.211Z,60.08
2017-04-26T01:54:06.190Z,60.27
2017-04-26T01:55:06.171Z,60.08
2017-04-26T01:56:06.152Z,60.27
2017-04-26T01:57:06.135Z,60.46
2017-04-26T01:58:06.114Z,60.55
2017-04-26T01:59:06.102Z,60.46
2017-04-26T02:00:06.077Z,60.55
2017-04-26T02:01:06.063Z,60.46
2017-04-26T02:02:05.740Z,60.46
2017-04-26T02:03:06.023Z,60.46
2017-04-26T02:04:06.015Z,60.36
2017-04-26T02:05:05.987Z,60.46
2017-04-26T02:06:05.974Z,60.27
2017-04-26T02:07:05.955Z,60.36
2017-04-26T02:08:05.938Z,60.36
2017-04-26T02:09:05.919Z,60.27
2017-04-26T02:10:05.902Z,60.27
2017-04-26T02:11:05.883Z,60.27
2017-04-26T02:12:05.567Z,60.36
2017-04-26T02:13:05.852Z,60.36
2017-04-26T02:14:05.826Z,60.36
2017-04-26T02:15:05.509Z,60.17
2017-04-26T02:16:05.797Z,60.27
2017-04-26T02:17:05.780Z,60.17
2017-04-26T02:18:05.756Z,60.17
2017-04-26T02:19:05.740Z,60.08
2017-04-26T02:20:05.720Z,60.17
2017-04-26T02:21:05.703Z,60.46
2017-04-26T02:22:05.383Z,60.46
2017-04-26T02:23:05.669Z,60.46
2017-04-26T02:24:05.650Z,60.46
2017-04-26T02:25:05.332Z,60.27
2017-04-26T02:26:05.613Z,60.55
2017-04-26T02:27:05.633Z,60.36
2017-04-26T02:28:05.576Z,60.55
2017-04-26T02:29:05.563Z,60.55
2017-04-26T02:30:05.543Z,60.46
2017-04-26T02:31:05.527Z,60.64
2017-04-26T02:32:05.508Z,61.02
2017-04-26T02:33:05.486Z,61.02
2017-04-26T02:34:05.473Z,60.93
2017-04-26T02:35:05.455Z,60.74
2017-04-26T02:36:05.433Z,60.55
2017-04-26T02:37:05.419Z,60.83
2017-04-26T02:38:05.401Z,61.11
2017-04-26T02:39:05.380Z,61.21
2017-04-26T02:40:05.362Z,61.3
2017-04-26T02:41:05.344Z,61.3
2017-04-26T02:42:05.328Z,61.11
2017-04-26T02:43:05.306Z,61.3
2017-04-26T02:44:05.289Z,61.3
2017-04-26T02:45:05.274Z,61.3
2017-04-26T02:46:05.254Z,61.4
2017-04-26T02:47:05.239Z,61.21
2017-04-26T02:48:05.222Z,61.4
2017-04-26T02:49:05.201Z,61.3
2017-04-26T02:50:05.186Z,61.11
2017-04-26T02:51:05.167Z,61.02
2017-04-26T02:52:05.144Z,61.11
2017-04-26T02:53:05.129Z,61.11
2017-04-26T02:54:05.113Z,61.11
2017-04-26T02:55:05.092Z,61.11
2017-04-26T02:56:05.075Z,61.3
2017-04-26T02:57:05.057Z,61.49
2017-04-26T02:58:05.040Z,61.49
2017-04-26T02:59:05.022Z,61.49
2017-04-26T03:00:05.005Z,61.49
2017-04-26T03:01:04.986Z,61.49
2017-04-26T03:02:04.970Z,61.49
2017-04-26T03:03:04.951Z,61.4
2017-04-26T03:04:04.930Z,61.58
2017-04-26T03:05:04.913Z,61.58
2017-04-26T03:06:04.897Z,61.49
2017-04-26T03:07:04.877Z,61.58
2017-04-26T03:08:04.860Z,61.3
2017-04-26T03:09:04.844Z,61.58
2017-04-26T03:10:04.823Z,61.49
2017-04-26T03:11:04.805Z,61.68
2017-04-26T03:12:04.788Z,61.49
2017-04-26T03:13:04.772Z,61.96
2017-04-26T03:14:04.753Z,61.87
2017-04-26T03:15:04.735Z,62.06
2017-04-26T03:16:04.418Z,61.77
2017-04-26T03:17:04.699Z,61.87
2017-04-26T03:18:04.679Z,61.77
2017-04-26T03:19:04.662Z,61.68
2017-04-26T03:20:04.643Z,61.96
2017-04-26T03:21:04.624Z,61.77
2017-04-26T03:22:04.608Z,61.77
2017-04-26T03:23:04.594Z,61.68
2017-04-26T03:24:04.574Z,61.58
2017-04-26T03:25:04.553Z,61.77
2017-04-26T03:26:04.536Z,61.87
2017-04-26T03:27:04.517Z,61.49
2017-04-26T03:28:04.499Z,61.58
2017-04-26T03:29:04.480Z,62.06
2017-04-26T03:30:04.464Z,61.77
2017-04-26T03:31:04.444Z,61.68
2017-04-26T03:32:04.426Z,61.77
2017-04-26T03:33:04.404Z,62.25
2017-04-26T03:34:04.392Z,62.34
2017-04-26T03:35:04.370Z,62.34
2017-04-26T03:36:04.352Z,62.25
2017-04-26T03:37:04.333Z,62.15
2017-04-26T03:38:04.319Z,62.25
2017-04-26T03:39:04.299Z,62.15
2017-04-26T03:40:04.281Z,62.44
2017-04-26T03:41:04.259Z,62.15
2017-04-26T03:42:04.244Z,62.53
2017-04-26T03:43:04.228Z,62.62
2017-04-26T03:44:04.207Z,62.44
2017-04-26T03:45:04.188Z,62.53
2017-04-26T03:46:04.171Z,62.44
2017-04-26T03:47:04.155Z,62.34
2017-04-26T03:48:04.131Z,62.44
2017-04-26T03:49:04.114Z,62.15
2017-04-26T03:50:04.100Z,62.72
2017-04-26T03:51:04.079Z,62.62
2017-04-26T03:52:04.059Z,62.53
2017-04-26T03:53:04.043Z,62.91
2017-04-26T03:54:04.023Z,62.91
2017-04-26T03:55:04.006Z,63
2017-04-26T03:56:03.984Z,62.72
2017-04-26T03:57:03.964Z,62.62
2017-04-26T03:58:03.950Z,62.72
2017-04-26T03:59:03.930Z,62.91
2017-04-26T04:00:03.913Z,62.91
2017-04-26T04:01:03.893Z,62.62
2017-04-26T04:02:03.874Z,63
2017-04-26T04:03:03.860Z,62.91
2017-04-26T04:04:03.839Z,63.29
2017-04-26T04:05:03.818Z,63.38
2017-04-26T04:06:03.802Z,63.48
2017-04-26T04:07:03.781Z,63.38
2017-04-26T04:08:03.766Z,63.76
2017-04-26T04:09:03.749Z,64.04
2017-04-26T04:10:03.731Z,63.67
2017-04-26T04:11:03.712Z,64.14
2017-04-26T04:12:03.692Z,63.95
2017-04-26T04:13:03.675Z,63.85
2017-04-26T04:14:03.658Z,64.61
2017-04-26T04:15:03.640Z,64.42
2017-04-26T04:16:03.618Z,64.42
2017-04-26T04:17:03.637Z,64.61
2017-04-26T04:18:03.580Z,64.61
2017-04-26T04:19:03.565Z,64.79
2017-04-26T04:20:03.549Z,64.79
2017-04-26T04:21:03.529Z,65.36
2017-04-26T04:22:03.512Z,65.55
2017-04-26T04:23:03.490Z,65.17
2017-04-26T04:24:03.469Z,65.46
2017-04-26T04:25:03.459Z,65.65
2017-04-26T04:26:03.436Z,65.36
2017-04-26T04:27:03.419Z,65.36
2017-04-26T04:28:03.400Z,65.84
2017-04-26T04:29:03.380Z,66.12
2017-04-26T04:30:03.364Z,66.03
2017-04-26T04:31:03.348Z,65.93
2017-04-26T04:32:03.326Z,66.31
2017-04-26T04:33:03.311Z,65.93
2017-04-26T04:34:03.288Z,66.12
2017-04-26T04:35:03.271Z,66.78
2017-04-26T04:36:03.257Z,66.5
2017-04-26T04:37:03.237Z,66.88
2017-04-26T04:38:03.224Z,66.88
2017-04-26T04:39:03.203Z,66.97
2017-04-26T04:40:03.182Z,67.16
2017-04-26T04:41:03.165Z,67.07
2017-04-26T04:42:03.146Z,67.63
2017-04-26T04:43:03.129Z,67.63
2017-04-26T04:44:03.113Z,67.35
2017-04-26T04:45:03.092Z,67.35
2017-04-26T04:46:03.074Z,67.54
2017-04-26T04:47:03.058Z,67.54
2017-04-26T04:48:03.039Z,67.54
2017-04-26T04:49:03.020Z,67.44
2017-04-26T04:50:02.711Z,67.54
2017-04-26T04:51:02.985Z,67.35
2017-04-26T04:52:02.965Z,67.44
2017-04-26T04:53:02.947Z,68.01
2017-04-26T04:54:02.934Z,67.54
2017-04-26T04:55:02.917Z,67.6
2017-04-26T04:56:02.897Z,67.63
2017-04-26T04:57:02.878Z,67.72
2017-04-26T04:58:02.864Z,68.01
2017-04-26T04:59:02.837Z,67.72
2017-04-26T05:00:02.821Z,67.63
2017-04-26T05:01:02.802Z,67.72
2017-04-26T05:02:02.790Z,68.1
2017-04-26T05:03:02.768Z,67.72
2017-04-26T05:04:02.750Z,68.1
2017-04-26T05:05:02.731Z,67.91
2017-04-26T05:06:02.412Z,68.29
2017-04-26T05:07:02.692Z,68.1
2017-04-26T05:08:02.678Z,67.91
2017-04-26T05:09:02.659Z,68.29
2017-04-26T05:10:02.641Z,67.54
2017-04-26T05:11:02.619Z,67.72
2017-04-26T05:12:02.602Z,68.1
2017-04-26T05:13:02.584Z,68.39
2017-04-26T05:14:02.568Z,68.1
2017-04-26T05:15:02.547Z,68.2
2017-04-26T05:16:02.533Z,68.2
2017-04-26T05:17:02.513Z,67.91
2017-04-26T05:18:02.496Z,68.2
2017-04-26T05:19:02.480Z,68.1
2017-04-26T05:20:02.459Z,68.2
2017-04-26T05:21:02.439Z,68.2
2017-04-26T05:22:02.420Z,68.39
2017-04-26T05:23:02.402Z,68.01
2017-04-26T05:24:02.390Z,67.82
2017-04-26T05:25:02.370Z,67.63
2017-04-26T05:26:02.353Z,67.72
2017-04-26T05:27:02.335Z,67.72
2017-04-26T05:28:02.314Z,68.39
2017-04-26T05:29:02.298Z,67.72
2017-04-26T05:30:02.284Z,67.91
2017-04-26T05:31:02.262Z,68.39
2017-04-26T05:32:02.243Z,68.1
2017-04-26T05:33:02.228Z,68.1
2017-04-26T05:34:02.219Z,68.29
2017-04-26T05:35:02.190Z,68.29
2017-04-26T05:36:02.175Z,68.29
2017-04-26T05:37:02.159Z,68.29
2017-04-26T05:38:02.142Z,68.39
2017-04-26T05:39:02.121Z,68.29
2017-04-26T05:40:02.106Z,68.39
2017-04-26T05:41:02.089Z,68.86
2017-04-26T05:42:02.067Z,68.57
2017-04-26T05:43:02.049Z,68.48
2017-04-26T05:44:02.034Z,68.29
2017-04-26T05:45:01.713Z,68.67
2017-04-26T05:46:01.998Z,68.67
2017-04-26T05:47:01.979Z,68.95
2017-04-26T05:48:01.963Z,68.67
2017-04-26T05:49:01.945Z,68.76
2017-04-26T05:50:01.929Z,68.67
2017-04-26T05:51:01.907Z,68.86
2017-04-26T05:52:01.889Z,68.86
2017-04-26T05:53:01.876Z,68.76
2017-04-26T05:54:01.855Z,68.76
2017-04-26T05:55:01.838Z,68.57
2017-04-26T05:56:01.821Z,69.24
2017-04-26T05:57:01.800Z,69.24
2017-04-26T05:58:01.786Z,68.95
2017-04-26T05:59:01.767Z,69.14
2017-04-26T06:00:01.746Z,68.86
2017-04-26T06:01:01.730Z,69.14
2017-04-26T06:02:01.711Z,69.24
2017-04-26T06:03:01.701Z,68.95
2017-04-26T06:04:01.674Z,69.43
2017-04-26T06:05:01.658Z,69.43
2017-04-26T06:06:01.640Z,69.71
2017-04-26T06:07:01.623Z,69.52
2017-04-26T06:08:01.614Z,69.71
2017-04-26T06:09:01.584Z,69.62
2017-04-26T06:10:01.570Z,69.62
2017-04-26T06:11:01.550Z,69.62
2017-04-26T06:12:01.533Z,69.71
2017-04-26T06:13:01.517Z,69.33
2017-04-26T06:14:01.496Z,69.71
2017-04-26T06:15:01.477Z,69.52
2017-04-26T06:16:01.461Z,69.52
2017-04-26T06:17:01.138Z,69.52
2017-04-26T06:18:01.422Z,69.24
2017-04-26T06:19:01.406Z,69.24
2017-04-26T06:20:01.384Z,69.33
2017-04-26T06:21:01.371Z,69.33
2017-04-26T06:22:01.352Z,69.33
2017-04-26T06:23:01.338Z,69.43
2017-04-26T06:24:01.320Z,69.62
2017-04-26T06:25:01.300Z,69.43
2017-04-26T06:26:01.276Z,69.71
2017-04-26T06:27:01.261Z,69.81
2017-04-26T06:28:01.246Z,69.9
2017-04-26T06:29:01.223Z,69.81
2017-04-26T06:30:01.210Z,69.62
2017-04-26T06:31:01.190Z,69.62
2017-04-26T06:32:01.172Z,70.09
2017-04-26T06:33:01.154Z,70
2017-04-26T06:34:01.146Z,70.09
2017-04-26T06:35:01.120Z,70.47
2017-04-26T06:36:01.102Z,70.56
2017-04-26T06:37:01.083Z,70.56
2017-04-26T06:38:01.063Z,70.56
2017-04-26T06:39:01.080Z,70.75
2017-04-26T06:40:01.026Z,70.75
2017-04-26T06:41:01.011Z,70.65
2017-04-26T06:42:00.992Z,70.65
2017-04-26T06:43:00.976Z,70.84
2017-04-26T06:44:00.970Z,70.84
2017-04-26T06:45:00.941Z,71.31
2017-04-26T06:46:00.923Z,71.41
2017-04-26T06:47:00.904Z,71.41
2017-04-26T06:48:00.884Z,71.22
2017-04-26T06:49:00.867Z,71.6
2017-04-26T06:50:00.549Z,71.6
2017-04-26T06:51:00.834Z,71.41
2017-04-26T06:52:00.819Z,71.6
2017-04-26T06:53:00.797Z,71.79
2017-04-26T06:54:00.780Z,71.5
2017-04-26T06:55:00.763Z,71.5
2017-04-26T06:56:00.748Z,71.88
2017-04-26T06:57:00.725Z,71.41
2017-04-26T06:58:00.709Z,71.12
2017-04-26T06:59:00.695Z,70.84
2017-04-26T07:00:00.675Z,71.03
2017-04-26T07:01:00.652Z,70.56
2017-04-26T07:02:00.635Z,70.31
2017-04-26T07:03:00.618Z,70.21
2017-04-26T07:04:00.600Z,69.84
2017-04-26T07:05:00.284Z,69.56
2017-04-26T07:06:00.569Z,69.56
2017-04-26T07:07:00.552Z,69.65
2017-04-26T07:08:00.534Z,69.84
2017-04-26T07:09:00.518Z,70.31
2017-04-26T07:10:00.501Z,69.84
2017-04-26T07:11:00.483Z,69.65
2017-04-26T07:12:00.470Z,69.74
2017-04-26T07:13:00.449Z,69.46
2017-04-26T07:14:00.436Z,69.4
2017-04-26T07:15:00.419Z,69.68
2017-04-26T07:16:00.403Z,70.31
2017-04-26T07:17:00.384Z,70.12
2017-04-26T07:18:00.371Z,70.12
2017-04-26T07:19:00.360Z,70.12
2017-04-26T07:20:00.339Z,70.5
2017-04-26T07:21:00.324Z,70.4
2017-04-26T07:22:00.306Z,70.12
2017-04-26T07:23:00.289Z,70.31
2017-04-26T07:24:00.273Z,70.5
2017-04-26T07:25:00.259Z,70.21
2017-04-26T07:26:00.239Z,69.74
2017-04-26T07:27:00.227Z,69.74
2017-04-26T07:28:00.208Z,69.93
2017-04-26T07:29:00.203Z,70.69
2017-04-26T07:30:00.180Z,70.47
2017-04-26T07:31:00.163Z,70.12
2017-04-26T07:32:00.143Z,70.31
2017-04-26T07:33:00.129Z,70.12
2017-04-26T07:34:00.112Z,70.31
2017-04-26T07:35:00.100Z,70.31
2017-04-26T07:35:59.777Z,69.56
2017-04-26T07:37:00.060Z,69.84
2017-04-26T07:38:00.049Z,69.74
2017-04-26T07:39:00.031Z,69.68
2017-04-26T07:40:00.014Z,69.21
2017-04-26T07:40:59.995Z,69.59
2017-04-26T07:41:59.984Z,69.78
2017-04-26T07:42:59.967Z,69.59
2017-04-26T07:43:59.947Z,69.78
2017-04-26T07:44:59.932Z,69.97
2017-04-26T07:45:59.917Z,69.78
2017-04-26T07:46:59.900Z,69.68
2017-04-26T07:47:59.882Z,69.59
2017-04-26T07:48:59.872Z,69.87
2017-04-26T07:49:59.853Z,69.59
2017-04-26T07:50:59.842Z,70.16
2017-04-26T07:51:59.822Z,71.11
2017-04-26T07:52:59.807Z,71.26
2017-04-26T07:53:59.788Z,71.45
2017-04-26T07:54:59.773Z,71.35
2017-04-26T07:55:59.755Z,72.02
2017-04-26T07:56:59.741Z,71.26
2017-04-26T07:57:59.726Z,70.97
2017-04-26T07:58:59.706Z,71.11
2017-04-26T07:59:59.695Z,70.92
2017-04-26T08:00:59.674Z,70.73
2017-04-26T08:01:59.659Z,70.48
2017-04-26T08:02:59.640Z,70.2
2017-04-26T08:03:59.627Z,69.72
2017-04-26T08:04:59.612Z,69.72
2017-04-26T08:05:59.595Z,69
2017-04-26T08:06:59.578Z,69.09
2017-04-26T08:07:59.564Z,69.6
2017-04-26T08:08:59.549Z,70.14
2017-04-26T08:09:59.532Z,70.7
2017-04-26T08:10:59.520Z,71.14
2017-04-26T08:11:59.501Z,70.98
2017-04-26T08:12:59.488Z,71.46
2017-04-26T08:13:59.477Z,71.74
2017-04-26T08:14:59.460Z,72.88
2017-04-26T08:15:59.446Z,73.32
2017-04-26T08:16:59.431Z,74.07
2017-04-26T08:17:59.413Z,74.69
2017-04-26T08:18:59.400Z,74.88
2017-04-26T08:19:59.385Z,75.17
2017-04-26T08:20:59.367Z,75.26
2017-04-26T08:21:59.353Z,75.45
2017-04-26T08:22:59.340Z,75.45
2017-04-26T08:23:59.324Z,75.36
2017-04-26T08:24:59.306Z,75.26
2017-04-26T08:25:59.288Z,75.17
2017-04-26T08:26:59.279Z,74.93
2017-04-26T08:27:59.260Z,75.21
2017-04-26T08:28:58.940Z,75.02
2017-04-26T08:29:59.229Z,75.49
2017-04-26T08:30:59.210Z,75.49
2017-04-26T08:31:59.198Z,76.15
2017-04-26T08:32:59.182Z,75.96
2017-04-26T08:33:59.167Z,76.44
2017-04-26T08:34:59.151Z,76.78
2017-04-26T08:35:59.144Z,76.87
2017-04-26T08:36:59.121Z,76.59
2017-04-26T08:37:59.101Z,76.91
2017-04-26T08:38:59.084Z,76.97
2017-04-26T08:39:59.069Z,76.91
2017-04-26T08:40:59.057Z,77.01
2017-04-26T08:41:59.057Z,77.2
2017-04-26T08:42:59.025Z,78.48
2017-04-26T08:43:59.006Z,78.63
2017-04-26T08:44:58.994Z,78.44
2017-04-26T08:45:58.978Z,78.29
2017-04-26T08:46:58.959Z,78.39
2017-04-26T08:47:58.944Z,78.63
2017-04-26T08:48:58.929Z,78.44
2017-04-26T08:49:58.914Z,78.76
2017-04-26T08:50:58.895Z,78.2
2017-04-26T08:51:58.883Z,77.91
2017-04-26T08:52:58.864Z,77.44
2017-04-26T08:53:58.852Z,76.68
2017-04-26T08:54:58.531Z,76.53
2017-04-26T08:55:58.816Z,77.01
2017-04-26T08:56:58.799Z,77.06
2017-04-26T08:57:58.786Z,76.91
2017-04-26T08:58:58.769Z,76.82
2017-04-26T08:59:58.757Z,77.29
2017-04-26T09:00:58.738Z,76.87
2017-04-26T09:01:58.737Z,76.82
2017-04-26T09:02:58.710Z,76.15
2017-04-26T09:03:58.692Z,75.96
2017-04-26T09:04:58.678Z,76.06
2017-04-26T09:05:58.663Z,75.21
2017-04-26T09:06:58.648Z,75.43
2017-04-26T09:07:58.646Z,75.59
2017-04-26T09:08:58.625Z,75.62
2017-04-26T09:09:58.603Z,75.78
2017-04-26T09:10:58.587Z,75.96
2017-04-26T09:11:58.570Z,76.82
2017-04-26T09:12:58.574Z,76.82
2017-04-26T09:13:58.544Z,76.82
2017-04-26T09:14:58.527Z,77.01
2017-04-26T09:15:58.513Z,76.63
2017-04-26T09:16:58.509Z,76.82
2017-04-26T09:17:58.484Z,76.15
2017-04-26T09:18:58.478Z,76.15
2017-04-26T09:19:58.468Z,76.25
2017-04-26T09:20:58.444Z,75.59
2017-04-26T09:21:58.439Z,75.59
2017-04-26T09:22:58.406Z,75.4
2017-04-26T09:23:58.397Z,74.83
2017-04-26T09:24:58.376Z,74.55
2017-04-26T09:25:58.364Z,74.21
2017-04-26T09:26:58.347Z,73.68
2017-04-26T09:27:58.334Z,74.15
2017-04-26T09:28:58.322Z,75.15
2017-04-26T09:29:58.302Z,76.15
2017-04-26T09:30:58.292Z,76.68
2017-04-26T09:31:58.277Z,76.78
2017-04-26T09:32:58.261Z,76.31
2017-04-26T09:33:58.247Z,76.78
2017-04-26T09:34:58.231Z,75.64
2017-04-26T09:35:58.217Z,75.02
2017-04-26T09:36:58.204Z,74.49
2017-04-26T09:37:58.184Z,74.4
2017-04-26T09:38:58.172Z,74.3
2017-04-26T09:39:58.160Z,74.58
2017-04-26T09:40:58.143Z,74.4
2017-04-26T09:41:58.131Z,74.05
2017-04-26T09:42:58.115Z,75.05
2017-04-26T09:43:57.797Z,75.53
2017-04-26T09:44:58.087Z,76.15
2017-04-26T09:45:58.074Z,76.72
2017-04-26T09:46:58.065Z,76.21
2017-04-26T09:47:58.042Z,76.97
2017-04-26T09:48:58.027Z,77.21
2017-04-26T09:49:58.016Z,77.69
2017-04-26T09:50:57.999Z,77.02
2017-04-26T09:51:57.983Z,76.78
2017-04-26T09:52:57.969Z,76.5
2017-04-26T09:53:57.955Z,76.02
2017-04-26T09:54:57.937Z,75.36
2017-04-26T09:55:57.923Z,75.21
2017-04-26T09:56:57.909Z,74.64
2017-04-26T09:57:57.896Z,74.26
2017-04-26T09:58:57.879Z,74.45
2017-04-26T09:59:57.864Z,73.41
2017-04-26T10:00:57.851Z,74.4
2017-04-26T10:01:57.838Z,75.49
2017-04-26T10:02:57.817Z,75.83
2017-04-26T10:03:57.806Z,76.31
2017-04-26T10:04:57.792Z,75.83
2017-04-26T10:05:57.775Z,74.88
2017-04-26T10:06:57.762Z,74.74
2017-04-26T10:07:57.749Z,74.36
2017-04-26T10:08:57.731Z,74.36
2017-04-26T10:09:57.719Z,74.55
2017-04-26T10:10:57.701Z,73.98
2017-04-26T10:11:57.686Z,73.79
2017-04-26T10:12:57.675Z,73.79
2017-04-26T10:14:07.853Z,73.88
2017-04-26T10:15:37.821Z,73.69
2017-04-26T10:16:37.799Z,73.41
2017-04-26T10:17:37.783Z,73.64
2017-04-26T10:18:37.765Z,73.54
2017-04-26T10:19:37.752Z,73.54
2017-04-26T10:20:37.740Z,73.64
2017-04-26T10:21:37.725Z,73.54
2017-04-26T10:22:37.712Z,74.07
2017-04-26T10:23:37.697Z,74.45
2017-04-26T10:24:37.682Z,73.98
2017-04-26T10:25:37.667Z,73.79
2017-04-26T10:26:37.653Z,74.07
2017-04-26T10:27:37.640Z,73.5
2017-04-26T10:29:01.555Z,73.5
2017-04-26T10:29:37.611Z,73.6
2017-04-26T10:30:57.048Z,73.69
2017-04-26T10:31:37.924Z,73.88
2017-04-26T10:32:37.568Z,74.07
2017-04-26T10:33:37.553Z,74.41
2017-04-26T10:34:37.236Z,74.13
2017-04-26T10:35:37.530Z,73.75
2017-04-26T10:36:37.712Z,73.28
2017-04-26T10:37:37.491Z,73.5
2017-04-26T10:38:37.479Z,73.03
2017-04-26T10:39:37.463Z,73.5
2017-04-26T10:40:37.449Z,73.66
2017-04-26T10:42:46.559Z,74.13
2017-04-26T10:43:37.402Z,74.28
2017-04-26T10:44:37.387Z,74.09
2017-04-26T10:45:37.373Z,73.81
2017-04-26T10:46:37.357Z,73.33
2017-04-26T10:47:37.342Z,73.37
2017-04-26T10:48:37.325Z,73.47
2017-04-26T10:49:37.310Z,73.66
2017-04-26T10:50:37.296Z,73.18
2017-04-26T10:51:37.281Z,73.09
2017-04-26T10:52:37.265Z,72.9
2017-04-26T10:53:37.250Z,72.62
2017-04-26T10:54:37.237Z,71.95
2017-04-26T10:55:37.226Z,72.56
2017-04-26T10:56:37.205Z,72.99
2017-04-26T10:57:36.888Z,73.33
2017-04-26T10:58:37.172Z,73.52
2017-04-26T10:59:37.159Z,73.33
2017-04-26T11:00:37.193Z,72.71
2017-04-26T11:01:37.154Z,72.14
2017-04-26T11:02:37.108Z,71.77
2017-04-26T11:03:37.094Z,71.48
2017-04-26T11:04:37.076Z,71.14
2017-04-26T11:05:37.066Z,71.14
2017-04-26T11:06:37.045Z,70.76
2017-04-26T11:07:37.034Z,70.86
2017-04-26T11:08:37.019Z,70.95
2017-04-26T11:09:37.004Z,70.86
2017-04-26T11:10:36.989Z,70.76
2017-04-26T11:11:36.979Z,71.04
2017-04-26T11:12:36.958Z,70.95
2017-04-26T11:13:36.942Z,71.04
2017-04-26T11:14:36.933Z,71.14
2017-04-26T11:15:36.912Z,71.04
2017-04-26T11:16:36.897Z,71.14
2017-04-26T11:17:36.884Z,70.86
2017-04-26T11:18:36.869Z,70.95
2017-04-26T11:19:36.854Z,71.23
2017-04-26T11:20:36.846Z,70.82
2017-04-26T11:21:36.826Z,70.76
2017-04-26T11:22:36.811Z,71.04
2017-04-26T11:23:36.797Z,71.23
2017-04-26T11:24:36.780Z,70.57
2017-04-26T11:25:36.768Z,70.29
2017-04-26T11:26:36.754Z,69.53
2017-04-26T11:27:36.740Z,69.28
2017-04-26T11:28:36.724Z,68.9
2017-04-26T11:29:36.716Z,68.9
2017-04-26T11:30:36.698Z,67.86
2017-04-26T11:31:36.686Z,68.37
2017-04-26T11:32:36.672Z,68.71
2017-04-26T11:33:36.655Z,68.4
2017-04-26T11:34:36.346Z,68.4
2017-04-26T11:35:36.629Z,68.4
2017-04-26T11:36:36.617Z,68.21
2017-04-26T11:37:36.604Z,68.3
2017-04-26T11:38:36.586Z,67.74
2017-04-26T11:39:36.572Z,68.12
2017-04-26T11:40:36.561Z,67.68
2017-04-26T11:41:36.543Z,67.39
2017-04-26T11:42:36.530Z,67.11
2017-04-26T11:43:36.517Z,67.68
2017-04-26T11:44:36.504Z,67.55
2017-04-26T11:45:36.491Z,67.64
2017-04-26T11:46:36.474Z,67.6
2017-04-26T11:47:36.459Z,67.26
2017-04-26T11:48:36.444Z,67.36
2017-04-26T11:49:36.432Z,67.07
2017-04-26T11:50:36.417Z,66.98
2017-04-26T11:51:36.410Z,67.26
2017-04-26T11:52:36.389Z,67.26
2017-04-26T11:53:36.376Z,67.07
2017-04-26T11:54:36.363Z,67.07
2017-04-26T11:55:36.345Z,67.17
2017-04-26T11:56:36.330Z,66.38
2017-04-26T11:57:36.315Z,66.41
2017-04-26T11:58:36.302Z,66.41
2017-04-26T11:59:36.287Z,66.41
2017-04-26T12:00:36.277Z,66.31
2017-04-26T12:01:36.256Z,66.13
2017-04-26T12:02:36.245Z,66.13
2017-04-26T12:03:36.231Z,65.66
2017-04-26T12:04:36.217Z,65.56
2017-04-26T12:05:36.200Z,66.31
2017-04-26T12:06:36.187Z,65.75
2017-04-26T12:07:36.171Z,65.47
2017-04-26T12:08:36.160Z,65.47
2017-04-26T12:09:36.147Z,65.56
2017-04-26T12:10:36.130Z,65.18
2017-04-26T12:11:36.126Z,64.8
2017-04-26T12:12:36.104Z,64.93
2017-04-26T12:13:36.090Z,64.8
2017-04-26T12:14:36.081Z,64.64
2017-04-26T12:15:36.060Z,64.99
2017-04-26T12:16:36.049Z,64.71
2017-04-26T12:17:36.034Z,64.17
2017-04-26T12:18:36.016Z,64.26
2017-04-26T12:19:36.002Z,64.26
2017-04-26T12:20:35.990Z,63.98
2017-04-26T12:21:35.976Z,64.17
2017-04-26T12:22:35.963Z,63.98
2017-04-26T12:23:35.972Z,64.17
2017-04-26T12:24:35.633Z,64.07
2017-04-26T12:25:35.619Z,64.14
2017-04-26T12:26:35.906Z,63.95
2017-04-26T12:27:35.891Z,63.85
2017-04-26T12:28:35.878Z,63.76
2017-04-26T12:29:35.862Z,64.14
2017-04-26T12:30:35.850Z,64.14
2017-04-26T12:31:35.835Z,64.04
2017-04-26T12:32:35.821Z,64.33
2017-04-26T12:33:35.808Z,64.33
2017-04-26T12:34:35.793Z,64.23
2017-04-26T12:35:35.775Z,63.95
2017-04-26T12:36:35.763Z,64.14
2017-04-26T12:37:35.748Z,64.04
2017-04-26T12:38:35.732Z,63.98
2017-04-26T12:39:35.721Z,64.07
2017-04-26T12:40:35.707Z,64.07
2017-04-26T12:41:35.688Z,63.76
2017-04-26T12:42:35.676Z,63.95
2017-04-26T12:43:35.360Z,64.14
2017-04-26T12:44:35.648Z,64.33
2017-04-26T12:45:35.628Z,63.95
2017-04-26T12:46:35.617Z,64.14
2017-04-26T12:47:35.617Z,64.23
2017-04-26T12:48:35.618Z,64.99
2017-04-26T12:49:35.573Z,64.8
2017-04-26T12:50:35.558Z,64.23
2017-04-26T12:51:35.543Z,64.23
2017-04-26T12:52:35.527Z,64.14
2017-04-26T12:53:35.512Z,64.23
2017-04-26T12:54:35.500Z,64.07
2017-04-26T12:55:35.487Z,64.26
2017-04-26T12:56:35.467Z,64.04